createdAt,value
2022-11-06T00:01:09.275Z,8.72
2022-11-06T00:03:40.506Z,8.88
2022-11-06T00:06:27.909Z,8.63
2022-11-06T00:08:57.991Z,8.67
2022-11-06T00:11:28.979Z,8.69
2022-11-06T00:13:58.905Z,8.52
2022-11-06T00:16:28.438Z,8.57
2022-11-06T00:19:01.210Z,8.78
2022-11-06T00:21:31.823Z,8.64
2022-11-06T00:24:02.745Z,8.98
2022-11-06T00:26:33.662Z,8.67
2022-11-06T00:29:04.005Z,8.33
2022-11-06T00:31:37.073Z,8.28
2022-11-06T00:34:09.148Z,8.25
2022-11-06T00:36:38.999Z,8.43
2022-11-06T00:39:10.661Z,7.94
2022-11-06T00:41:40.235Z,8.82
2022-11-06T00:44:12.177Z,8.71
2022-11-06T00:46:41.849Z,8.77
2022-11-06T00:49:13.373Z,8.78
2022-11-06T00:51:43.109Z,8.56
2022-11-06T00:54:15.753Z,8.44
2022-11-06T00:56:46.458Z,8.45
2022-11-06T00:59:16.516Z,8.66
2022-11-06T01:01:47.745Z,8.27
2022-11-06T01:04:20.484Z,8.69
2022-11-06T01:06:53.318Z,8.41
2022-11-06T01:09:25.707Z,8.37
2022-11-06T01:12:12.964Z,8.39
2022-11-06T01:14:44.352Z,8.43
2022-11-06T01:17:14.565Z,8.40
2022-11-06T01:19:47.305Z,8.22
2022-11-06T01:22:18.346Z,8.04
2022-11-06T01:24:48.909Z,8.44
2022-11-06T01:27:27.012Z,8.19
2022-11-06T01:29:57.452Z,8.15
2022-11-06T01:32:27.540Z,8.12
2022-11-06T01:34:58.631Z,8.44
2022-11-06T01:37:28.591Z,8.33
2022-11-06T01:39:58.683Z,8.22
2022-11-06T01:42:28.170Z,8.51
2022-11-06T01:45:23.896Z,8.34
2022-11-06T01:47:53.645Z,8.46
2022-11-06T01:50:25.772Z,8.03
2022-11-06T01:52:55.983Z,8.09
2022-11-06T01:55:27.701Z,8.14
2022-11-06T01:57:57.767Z,8.55
2022-11-06T02:00:29.281Z,8.26
2022-11-06T02:02:59.697Z,8.44
2022-11-06T02:05:31.372Z,8.41
2022-11-06T02:08:02.282Z,8.50
2022-11-06T02:10:32.552Z,8.19
2022-11-06T02:13:17.548Z,8.48
2022-11-06T02:15:53.739Z,8.12
2022-11-06T02:18:54.732Z,8.69
2022-11-06T02:21:54.931Z,8.33
2022-11-06T02:24:50.149Z,8.51
2022-11-06T02:27:22.909Z,8.48
2022-11-06T02:29:56.952Z,8.09
2022-11-06T02:32:29.991Z,8.30
2022-11-06T02:35:06.288Z,8.06
2022-11-06T02:37:42.559Z,8.17
2022-11-06T02:40:13.680Z,8.36
2022-11-06T02:42:47.757Z,8.42
2022-11-06T02:45:18.353Z,7.61
2022-11-06T02:47:51.083Z,7.57
2022-11-06T02:50:25.607Z,8.25
2022-11-06T02:52:59.670Z,7.93
2022-11-06T02:55:32.848Z,8.05
2022-11-06T02:58:09.546Z,8.01
2022-11-06T03:00:40.309Z,7.64
2022-11-06T03:03:16.299Z,8.25
2022-11-06T03:05:50.294Z,8.20
2022-11-06T03:08:25.305Z,8.34
2022-11-06T03:10:59.711Z,8.07
2022-11-06T03:13:39.006Z,7.63
2022-11-06T03:16:12.737Z,8.30
2022-11-06T03:18:51.430Z,7.58
2022-11-06T03:21:25.817Z,7.89
2022-11-06T03:23:58.832Z,8.10
2022-11-06T03:26:32.411Z,7.98
2022-11-06T03:29:11.023Z,7.92
2022-11-06T03:31:47.618Z,7.80
2022-11-06T03:34:23.194Z,7.92
2022-11-06T03:36:56.553Z,7.58
2022-11-06T03:39:30.838Z,7.79
2022-11-06T03:42:04.443Z,7.62
2022-11-06T03:44:40.445Z,8.14
2022-11-06T03:47:12.715Z,7.71
2022-11-06T03:49:47.272Z,7.45
2022-11-06T03:52:19.503Z,7.27
2022-11-06T03:54:53.524Z,7.42
2022-11-06T03:57:27.322Z,7.52
2022-11-06T04:00:02.413Z,8.14
2022-11-06T04:02:35.101Z,8.35
2022-11-06T04:05:08.974Z,7.84
2022-11-06T04:08:07.795Z,8.11
2022-11-06T04:10:55.977Z,8.33
2022-11-06T04:13:46.120Z,7.77
2022-11-06T04:16:17.401Z,7.98
2022-11-06T04:18:46.929Z,8.12
2022-11-06T04:21:26.280Z,8.11
2022-11-06T04:24:26.086Z,7.38
2022-11-06T04:27:05.965Z,7.61
2022-11-06T04:29:48.620Z,7.68
2022-11-06T04:32:24.301Z,7.92
2022-11-06T04:35:00.022Z,7.84
2022-11-06T04:37:35.431Z,7.83
2022-11-06T04:40:10.890Z,7.80
2022-11-06T04:42:44.172Z,7.87
2022-11-06T04:45:16.239Z,7.25
2022-11-06T04:47:48.300Z,7.28
2022-11-06T04:50:19.554Z,6.87
2022-11-06T04:52:50.031Z,7.67
2022-11-06T04:55:21.628Z,7.15
2022-11-06T04:57:52.491Z,7.57
2022-11-06T05:00:23.267Z,7.29
2022-11-06T05:02:54.365Z,7.50
2022-11-06T05:05:24.116Z,6.95
2022-11-06T05:07:53.434Z,7.51
2022-11-06T05:10:22.976Z,7.40
2022-11-06T05:12:53.087Z,7.60
2022-11-06T05:15:23.012Z,7.59
2022-11-06T05:17:53.954Z,7.71
2022-11-06T05:20:26.983Z,7.36
2022-11-06T05:23:00.963Z,7.14
2022-11-06T05:25:31.999Z,6.90
2022-11-06T05:28:02.753Z,7.41
2022-11-06T05:30:35.341Z,7.25
2022-11-06T05:33:06.834Z,7.48
2022-11-06T05:35:37.973Z,6.89
2022-11-06T05:38:08.840Z,7.09
2022-11-06T05:40:39.063Z,7.18
2022-11-06T05:43:09.737Z,7.07
2022-11-06T05:45:39.172Z,6.55
2022-11-06T05:48:10.819Z,7.42
2022-11-06T05:50:40.782Z,7.36
2022-11-06T05:53:10.338Z,7.10
2022-11-06T05:55:40.227Z,7.09
2022-11-06T05:58:10.224Z,7.71
2022-11-06T06:00:40.532Z,7.52
2022-11-06T06:03:12.419Z,7.49
2022-11-06T06:05:42.271Z,7.78
2022-11-06T06:08:13.517Z,7.63
2022-11-06T06:10:44.347Z,7.72
2022-11-06T06:13:15.139Z,7.22
2022-11-06T06:15:45.106Z,7.33
2022-11-06T06:18:16.451Z,7.73
2022-11-06T06:20:46.376Z,7.45
2022-11-06T06:23:15.989Z,7.17
2022-11-06T06:25:45.399Z,7.05
2022-11-06T06:28:15.709Z,7.20
2022-11-06T06:30:45.664Z,7.72
2022-11-06T06:33:16.593Z,7.56
2022-11-06T06:35:46.841Z,7.97
2022-11-06T06:38:16.852Z,7.47
2022-11-06T06:40:47.872Z,7.68
2022-11-06T06:43:17.908Z,7.92
2022-11-06T06:45:48.171Z,7.73
2022-11-06T06:48:19.426Z,8.00
2022-11-06T06:50:49.044Z,7.91
2022-11-06T06:53:18.523Z,7.90
2022-11-06T06:55:48.037Z,8.15
2022-11-06T06:58:18.261Z,8.02
2022-11-06T07:00:48.267Z,7.75
2022-11-06T07:03:19.243Z,7.83
2022-11-06T07:05:49.207Z,7.50
2022-11-06T07:08:19.028Z,8.21
2022-11-06T07:10:48.493Z,8.12
2022-11-06T07:13:18.230Z,7.24
2022-11-06T07:15:48.476Z,7.59
2022-11-06T07:18:21.357Z,8.06
2022-11-06T07:20:51.145Z,7.33
2022-11-06T07:23:20.861Z,7.46
2022-11-06T07:25:55.624Z,6.33
2022-11-06T07:28:26.293Z,7.43
2022-11-06T07:31:00.204Z,7.53
2022-11-06T07:33:31.815Z,6.84
2022-11-06T07:36:05.517Z,7.16
2022-11-06T07:38:35.966Z,7.67
2022-11-06T07:41:06.080Z,7.92
2022-11-06T07:43:36.074Z,8.10
2022-11-06T07:46:07.666Z,8.06
2022-11-06T07:48:39.680Z,7.86
2022-11-06T07:51:12.989Z,8.45
2022-11-06T07:53:43.075Z,8.13
2022-11-06T07:56:12.933Z,8.33
2022-11-06T07:58:42.684Z,8.09
2022-11-06T08:01:19.374Z,8.33
2022-11-06T08:03:50.290Z,8.38
2022-11-06T08:06:20.190Z,8.81
2022-11-06T08:08:52.645Z,8.86
2022-11-06T08:11:26.000Z,8.92
2022-11-06T08:13:55.813Z,8.12
2022-11-06T08:16:26.254Z,8.56
2022-11-06T08:18:56.846Z,7.88
2022-11-06T08:21:28.125Z,7.90
2022-11-06T08:23:57.437Z,8.11
2022-11-06T08:26:27.644Z,8.37
2022-11-06T08:28:57.735Z,8.56
2022-11-06T08:31:27.795Z,8.18
2022-11-06T08:33:59.142Z,8.61
2022-11-06T08:36:28.902Z,8.40
2022-11-06T08:38:58.404Z,8.38
2022-11-06T08:41:27.833Z,8.46
2022-11-06T08:43:57.345Z,9.03
2022-11-06T08:46:27.717Z,9.22
2022-11-06T08:48:58.235Z,8.40
2022-11-06T08:51:28.050Z,8.91
2022-11-06T08:53:58.050Z,9.21
2022-11-06T08:56:30.028Z,9.49
2022-11-06T08:58:59.490Z,9.37
2022-11-06T09:01:29.794Z,9.59
2022-11-06T09:04:01.279Z,9.18
2022-11-06T09:06:30.859Z,9.87
2022-11-06T09:09:01.079Z,10.03
2022-11-06T09:11:30.762Z,9.98
2022-11-06T09:14:00.708Z,10.20
2022-11-06T09:16:31.069Z,9.96
2022-11-06T09:19:05.420Z,9.53
2022-11-06T09:21:35.731Z,9.44
2022-11-06T09:24:06.014Z,9.84
2022-11-06T09:26:36.339Z,9.96
2022-11-06T09:29:06.213Z,9.85
2022-11-06T09:31:35.960Z,10.00
2022-11-06T09:34:07.537Z,10.18
2022-11-06T09:36:38.778Z,10.24
2022-11-06T09:39:08.837Z,10.39
2022-11-06T09:41:44.504Z,10.70
2022-11-06T09:44:25.199Z,10.77
2022-11-06T09:46:56.166Z,11.02
2022-11-06T09:49:29.898Z,11.15
2022-11-06T09:52:02.289Z,11.55
2022-11-06T09:54:36.222Z,11.35
2022-11-06T09:57:11.727Z,11.43
2022-11-06T09:59:42.106Z,11.63
2022-11-06T10:02:25.638Z,12.11
2022-11-06T10:05:02.035Z,12.08
2022-11-06T10:07:33.476Z,12.15
2022-11-06T10:10:04.465Z,12.56
2022-11-06T10:12:42.087Z,12.58
2022-11-06T10:15:21.593Z,12.76
2022-11-06T10:17:59.059Z,12.99
2022-11-06T10:20:33.973Z,13.13
2022-11-06T10:23:12.042Z,12.90
2022-11-06T10:25:46.959Z,13.22
2022-11-06T10:28:30.704Z,13.38
2022-11-06T10:31:08.500Z,13.45
2022-11-06T10:33:46.787Z,14.01
2022-11-06T10:36:19.765Z,14.10
2022-11-06T10:38:50.388Z,13.98
2022-11-06T10:41:22.753Z,13.94
2022-11-06T10:43:56.589Z,14.02
2022-11-06T10:46:32.414Z,14.61
2022-11-06T10:49:03.274Z,14.56
2022-11-06T10:52:02.275Z,14.44
2022-11-06T10:54:40.469Z,14.76
2022-11-06T10:57:30.231Z,15.34
2022-11-06T11:00:00.078Z,15.12
2022-11-06T11:02:32.141Z,15.17
2022-11-06T11:05:02.127Z,15.15
2022-11-06T11:07:34.653Z,15.52
2022-11-06T11:10:27.889Z,15.67
2022-11-06T11:13:06.954Z,15.72
2022-11-06T11:15:45.087Z,15.86
2022-11-06T11:18:19.900Z,16.01
2022-11-06T11:20:50.945Z,15.98
2022-11-06T11:23:23.684Z,15.97
2022-11-06T11:25:55.447Z,16.28
2022-11-06T11:28:29.601Z,16.41
2022-11-06T11:31:06.540Z,16.68
2022-11-06T11:33:37.681Z,16.58
2022-11-06T11:36:08.763Z,16.72
2022-11-06T11:38:43.038Z,16.52
2022-11-06T11:41:16.500Z,16.68
2022-11-06T11:43:46.371Z,17.08
2022-11-06T11:46:22.162Z,16.88
2022-11-06T11:48:53.469Z,16.99
2022-11-06T11:51:32.562Z,17.12
2022-11-06T11:54:07.567Z,17.34
2022-11-06T11:59:39.794Z,16.98
2022-11-06T12:02:22.189Z,17.05
2022-11-06T12:04:57.657Z,16.80
2022-11-06T12:07:29.854Z,16.57
2022-11-06T12:10:01.216Z,16.48
2022-11-06T12:12:33.505Z,16.62
2022-11-06T12:15:20.965Z,17.05
2022-11-06T12:17:53.823Z,17.27
2022-11-06T12:20:26.433Z,16.88
2022-11-06T12:22:57.465Z,16.99
2022-11-06T12:25:32.550Z,16.70
2022-11-06T12:28:02.873Z,17.05
2022-11-06T12:30:34.148Z,16.72
2022-11-06T12:33:07.807Z,16.52
2022-11-06T12:35:41.785Z,17.04
2022-11-06T12:38:20.958Z,17.67
2022-11-06T12:40:57.102Z,16.97
2022-11-06T12:43:33.938Z,17.08
2022-11-06T12:46:33.136Z,16.95
2022-11-06T12:49:23.981Z,16.77
2022-11-06T12:52:04.330Z,16.80
2022-11-06T12:54:43.749Z,17.04
2022-11-06T12:57:24.014Z,17.01
2022-11-06T13:00:03.970Z,17.25
2022-11-06T13:02:50.846Z,16.88
2022-11-06T13:05:23.988Z,17.41
2022-11-06T13:08:14.685Z,17.47
2022-11-06T13:10:58.448Z,17.03
2022-11-06T13:13:42.264Z,16.86
2022-11-06T13:16:18.761Z,16.78
2022-11-06T13:18:53.420Z,16.92
2022-11-06T13:21:30.372Z,16.47
2022-11-06T13:24:03.176Z,16.42
2022-11-06T13:26:38.305Z,16.48
2022-11-06T13:29:13.605Z,16.13
2022-11-06T13:31:45.692Z,15.91
2022-11-06T13:34:19.745Z,16.03
2022-11-06T13:36:50.538Z,15.94
2022-11-06T13:39:23.776Z,15.85
2022-11-06T13:41:54.620Z,15.68
2022-11-06T13:44:25.802Z,15.69
2022-11-06T13:47:01.024Z,15.40
2022-11-06T13:49:35.772Z,15.25
2022-11-06T13:52:06.845Z,14.94
2022-11-06T13:54:45.813Z,15.25
2022-11-06T13:57:36.605Z,15.09
2022-11-06T14:00:17.976Z,14.91
2022-11-06T14:03:29.798Z,14.53
2022-11-06T14:06:01.700Z,14.58
2022-11-06T14:08:33.609Z,14.71
2022-11-06T14:11:05.497Z,14.59
2022-11-06T14:13:36.684Z,14.50
2022-11-06T14:16:27.241Z,14.61
2022-11-06T14:19:03.190Z,14.46
2022-11-06T14:21:52.040Z,14.37
2022-11-06T14:24:39.954Z,14.33
2022-11-06T14:27:13.856Z,14.44
2022-11-06T14:30:02.468Z,14.21
2022-11-06T14:32:41.805Z,14.15
2022-11-06T14:35:50.797Z,14.10
2022-11-06T14:38:34.865Z,14.08
2022-11-06T14:41:19.781Z,14.07
2022-11-06T14:43:53.203Z,14.04
2022-11-06T14:46:25.062Z,13.91
2022-11-06T14:48:58.337Z,13.76
2022-11-06T14:51:29.507Z,13.88
2022-11-06T14:54:04.516Z,14.13
2022-11-06T14:56:38.208Z,13.78
2022-11-06T14:59:11.309Z,13.82
2022-11-06T15:01:41.099Z,13.61
2022-11-06T15:04:20.809Z,13.75
2022-11-06T15:06:53.213Z,13.71
2022-11-06T15:09:47.014Z,13.70
2022-11-06T15:12:18.290Z,13.63
2022-11-06T15:14:58.185Z,13.59
2022-11-06T15:17:29.750Z,13.42
2022-11-06T15:20:22.839Z,13.22
2022-11-06T15:23:17.475Z,13.12
2022-11-06T15:25:55.933Z,12.86
2022-11-06T15:28:28.528Z,12.84
2022-11-06T15:31:01.983Z,12.56
2022-11-06T15:33:35.237Z,12.40
2022-11-06T15:36:08.245Z,12.30
2022-11-06T15:38:42.422Z,12.29
2022-11-06T15:41:16.542Z,12.19
2022-11-06T15:43:47.464Z,12.03
2022-11-06T15:46:21.455Z,11.93
2022-11-06T15:49:07.725Z,12.00
2022-11-06T15:51:40.494Z,12.11
2022-11-06T15:54:15.086Z,11.90
2022-11-06T15:56:45.997Z,11.83
2022-11-06T15:59:17.317Z,11.74
2022-11-06T16:01:49.954Z,11.63
2022-11-06T16:04:22.734Z,11.49
2022-11-06T16:06:55.838Z,11.43
2022-11-06T16:09:27.812Z,11.42
2022-11-06T16:11:57.568Z,11.37
2022-11-06T16:14:27.485Z,11.36
2022-11-06T16:16:57.688Z,11.55
2022-11-06T16:19:30.878Z,11.40
2022-11-06T16:22:06.088Z,11.37
2022-11-06T16:24:41.873Z,11.33
2022-11-06T16:27:12.046Z,11.50
2022-11-06T16:29:46.022Z,11.37
2022-11-06T16:32:18.813Z,11.34
2022-11-06T16:34:49.541Z,11.30
2022-11-06T16:37:50.176Z,11.28
2022-11-06T16:40:52.677Z,11.25
2022-11-06T16:43:24.384Z,11.22
2022-11-06T16:45:55.959Z,11.21
2022-11-06T16:48:45.678Z,11.21
2022-11-06T16:51:16.440Z,11.22
2022-11-06T16:54:12.197Z,11.24
2022-11-06T16:56:42.771Z,11.21
2022-11-06T16:59:16.715Z,11.23
2022-11-06T17:01:48.514Z,11.36
2022-11-06T17:04:24.829Z,11.30
2022-11-06T17:06:55.481Z,11.17
2022-11-06T17:09:32.245Z,11.18
2022-11-06T17:12:02.948Z,11.29
2022-11-06T17:14:33.128Z,11.20
2022-11-06T17:17:03.685Z,11.12
2022-11-06T17:19:33.178Z,11.12
2022-11-06T17:22:02.777Z,10.96
2022-11-06T17:24:37.337Z,10.85
2022-11-06T17:27:07.758Z,10.76
2022-11-06T17:29:37.319Z,10.72
2022-11-06T17:32:07.402Z,10.78
2022-11-06T17:34:36.909Z,10.72
2022-11-06T17:37:07.413Z,10.60
2022-11-06T17:39:38.329Z,10.68
2022-11-06T17:42:08.143Z,10.52
2022-11-06T17:45:01.792Z,11.35
2022-11-06T17:47:31.254Z,11.08
2022-11-06T17:50:02.247Z,10.97
2022-11-06T17:52:32.073Z,10.94
2022-11-06T17:55:06.721Z,10.52
2022-11-06T17:57:38.810Z,10.27
2022-11-06T18:00:11.472Z,10.20
2022-11-06T18:03:00.186Z,10.17
2022-11-06T18:05:33.078Z,10.12
2022-11-06T18:08:03.677Z,10.11
2022-11-06T18:10:37.442Z,9.88
2022-11-06T18:13:09.649Z,9.81
2022-11-06T18:15:42.585Z,9.74
2022-11-06T18:18:13.350Z,9.69
2022-11-06T18:20:52.971Z,9.66
2022-11-06T18:23:23.562Z,9.76
2022-11-06T18:26:02.265Z,9.66
2022-11-06T18:28:32.270Z,9.79
2022-11-06T18:31:03.860Z,9.93
2022-11-06T18:33:36.259Z,9.93
2022-11-06T18:36:10.268Z,9.80
2022-11-06T18:38:40.782Z,9.87
2022-11-06T18:41:16.910Z,9.74
2022-11-06T18:43:49.503Z,9.81
2022-11-06T18:46:21.207Z,9.98
2022-11-06T18:48:51.099Z,9.66
2022-11-06T18:51:34.504Z,9.76
2022-11-06T18:54:07.880Z,9.80
2022-11-06T18:56:40.347Z,9.70
2022-11-06T18:59:13.096Z,9.67
2022-11-06T19:01:45.100Z,9.67
2022-11-06T19:04:15.606Z,9.86
2022-11-06T19:06:46.093Z,10.00
2022-11-06T19:09:24.169Z,9.71
2022-11-06T19:11:59.910Z,10.27
2022-11-06T19:14:38.339Z,10.20
2022-11-06T19:17:07.943Z,9.71
2022-11-06T19:19:37.361Z,9.47
2022-11-06T19:22:06.871Z,9.36
2022-11-06T19:24:36.944Z,9.20
2022-11-06T19:27:08.932Z,9.44
2022-11-06T19:29:38.858Z,9.27
2022-11-06T19:32:09.508Z,9.41
2022-11-06T19:34:39.770Z,9.64
2022-11-06T19:37:09.515Z,9.48
2022-11-06T19:39:39.579Z,9.61
2022-11-06T19:42:10.409Z,9.30
2022-11-06T19:44:39.908Z,9.27
2022-11-06T19:47:09.727Z,9.15
2022-11-06T19:49:39.125Z,9.52
2022-11-06T19:52:42.818Z,9.21
2022-11-06T19:55:25.606Z,8.91
2022-11-06T19:57:50.626Z,8.67
2022-11-06T20:00:20.667Z,8.72
2022-11-06T20:02:51.553Z,9.39
2022-11-06T20:05:21.379Z,8.80
2022-11-06T20:07:50.998Z,9.49
2022-11-06T20:10:20.489Z,9.29
2022-11-06T20:12:51.832Z,8.90
2022-11-06T20:15:24.099Z,8.64
2022-11-06T20:17:54.852Z,9.07
2022-11-06T20:20:26.321Z,9.09
2022-11-06T20:23:00.021Z,9.15
2022-11-06T20:25:30.058Z,9.31
2022-11-06T20:28:01.209Z,9.07
2022-11-06T20:30:31.186Z,9.30
2022-11-06T20:33:00.948Z,9.38
2022-11-06T20:35:30.951Z,9.42
2022-11-06T20:38:00.136Z,9.54
2022-11-06T20:40:31.991Z,9.12
2022-11-06T20:43:05.955Z,9.24
2022-11-06T20:45:37.741Z,10.01
2022-11-06T20:48:09.198Z,10.24
2022-11-06T20:50:38.785Z,10.42
2022-11-06T20:53:08.688Z,10.12
2022-11-06T20:55:38.081Z,9.73
2022-11-06T20:58:09.606Z,9.94
2022-11-06T21:00:39.338Z,10.21
2022-11-06T21:03:09.208Z,10.22
2022-11-06T21:05:38.724Z,10.24
2022-11-06T21:08:07.985Z,10.54
2022-11-06T21:10:38.075Z,10.12
2022-11-06T21:13:09.301Z,9.90
2022-11-06T21:15:39.007Z,9.82
2022-11-06T21:18:08.618Z,9.90
2022-11-06T21:20:40.187Z,9.61
2022-11-06T21:23:10.323Z,9.29
2022-11-06T21:25:44.099Z,9.28
2022-11-06T21:28:16.382Z,9.41
2022-11-06T21:30:47.411Z,9.32
2022-11-06T21:33:17.797Z,9.32
2022-11-06T21:35:47.460Z,9.03
2022-11-06T21:38:17.058Z,8.99
2022-11-06T21:40:46.675Z,8.65
2022-11-06T21:43:17.986Z,8.90
2022-11-06T21:45:47.518Z,8.83
2022-11-06T21:48:40.256Z,8.78
2022-11-06T21:51:10.023Z,8.64
2022-11-06T21:53:58.098Z,8.75
2022-11-06T21:56:28.880Z,8.55
2022-11-06T21:59:01.221Z,8.66
2022-11-06T22:01:31.960Z,8.70
2022-11-06T22:04:02.145Z,9.14
2022-11-06T22:06:32.108Z,8.78
2022-11-06T22:09:03.207Z,8.40
2022-11-06T22:11:34.761Z,8.66
2022-11-06T22:14:07.364Z,8.97
2022-11-06T22:16:38.554Z,8.88
2022-11-06T22:19:09.045Z,8.62
2022-11-06T22:21:40.417Z,8.42
2022-11-06T22:24:11.722Z,8.56
2022-11-06T22:26:41.943Z,8.74
2022-11-06T22:29:14.246Z,8.42
2022-11-06T22:31:44.193Z,8.33
2022-11-06T22:34:15.141Z,9.05
2022-11-06T22:36:45.357Z,8.44
2022-11-06T22:39:15.103Z,8.36
2022-11-06T22:41:44.579Z,8.39
2022-11-06T22:44:15.772Z,8.30
2022-11-06T22:46:45.604Z,8.62
2022-11-06T22:49:15.340Z,8.51
2022-11-06T22:51:44.593Z,8.33
2022-11-06T22:54:13.745Z,8.56
2022-11-06T22:56:43.549Z,8.40
2022-11-06T22:59:14.764Z,8.45
2022-11-06T23:01:44.298Z,8.24
2022-11-06T23:04:16.049Z,8.15
2022-11-06T23:06:49.403Z,8.38
2022-11-06T23:09:18.993Z,8.16
2022-11-06T23:11:48.647Z,8.52
2022-11-06T23:14:19.655Z,8.58
2022-11-06T23:16:58.244Z,8.84
2022-11-06T23:19:28.838Z,8.48
2022-11-06T23:22:12.102Z,8.44
2022-11-06T23:24:41.953Z,8.55
2022-11-06T23:27:12.320Z,8.54
2022-11-06T23:29:43.854Z,8.68
2022-11-06T23:32:13.660Z,8.84
2022-11-06T23:34:42.942Z,8.82
2022-11-06T23:37:12.347Z,8.39
2022-11-06T23:39:42.150Z,8.15
2022-11-06T23:42:14.670Z,8.39
2022-11-06T23:45:03.058Z,8.66
2022-11-06T23:47:32.403Z,8.54
2022-11-06T23:50:02.145Z,8.52
2022-11-06T23:52:31.484Z,8.39
2022-11-06T23:55:01.142Z,8.25
2022-11-06T23:57:30.775Z,8.26
